sensor_id;sensor_type;location;lat;lon;timestamp;pressure;altitude;pressure_sealevel;temperature;humidity
33414;BME280;60055;41.884;12.534;2023-06-10T00:01:52;100767.09;;;23.51;67.98
33414;BME280;60055;41.884;12.534;2023-06-10T00:04:20;100767.63;;;23.45;69.16
33414;BME280;60055;41.884;12.534;2023-06-10T00:06:46;100763.41;;;23.52;68.93
33414;BME280;60055;41.884;12.534;2023-06-10T00:09:15;100767.56;;;23.35;70.47
33414;BME280;60055;41.884;12.534;2023-06-10T00:11:41;100765.25;;;23.21;71.40
33414;BME280;60055;41.884;12.534;2023-06-10T00:14:07;100756.28;;;23.41;70.71
33414;BME280;60055;41.884;12.534;2023-06-10T00:16:33;100750.53;;;23.34;70.34
33414;BME280;60055;41.884;12.534;2023-06-10T00:19:03;100744.84;;;23.28;70.86
33414;BME280;60055;41.884;12.534;2023-06-10T00:21:29;100747.94;;;23.23;71.00
33414;BME280;60055;41.884;12.534;2023-06-10T00:23:55;100743.72;;;23.30;70.56
33414;BME280;60055;41.884;12.534;2023-06-10T00:26:24;100745.72;;;23.28;70.97
33414;BME280;60055;41.884;12.534;2023-06-10T00:28:49;100738.72;;;23.26;71.01
33414;BME280;60055;41.884;12.534;2023-06-10T00:31:15;100737.44;;;23.20;71.16
33414;BME280;60055;41.884;12.534;2023-06-10T00:33:40;100728.66;;;23.18;71.45
33414;BME280;60055;41.884;12.534;2023-06-10T00:36:06;100740.84;;;23.22;71.52
33414;BME280;60055;41.884;12.534;2023-06-10T00:38:31;100739.44;;;23.18;71.54
33414;BME280;60055;41.884;12.534;2023-06-10T00:40:57;100746.78;;;23.16;71.93
33414;BME280;60055;41.884;12.534;2023-06-10T00:43:23;100748.59;;;23.16;72.00
33414;BME280;60055;41.884;12.534;2023-06-10T00:45:49;100753.06;;;23.26;72.20
33414;BME280;60055;41.884;12.534;2023-06-10T00:48:14;100753.91;;;23.27;72.13
33414;BME280;60055;41.884;12.534;2023-06-10T00:50:40;100743.09;;;23.17;72.26
33414;BME280;60055;41.884;12.534;2023-06-10T00:53:05;100732.00;;;23.11;72.59
33414;BME280;60055;41.884;12.534;2023-06-10T00:55:32;100731.25;;;22.78;74.29
33414;BME280;60055;41.884;12.534;2023-06-10T00:57:58;100722.44;;;22.97;74.07
33414;BME280;60055;41.884;12.534;2023-06-10T01:00:23;100731.38;;;22.98;73.86
33414;BME280;60055;41.884;12.534;2023-06-10T01:02:49;100737.22;;;23.03;73.48
33414;BME280;60055;41.884;12.534;2023-06-10T01:05:17;100739.84;;;22.93;73.65
33414;BME280;60055;41.884;12.534;2023-06-10T01:08:13;100728.22;;;22.92;73.82
33414;BME280;60055;41.884;12.534;2023-06-10T01:10:58;100726.78;;;22.68;75.65
33414;BME280;60055;41.884;12.534;2023-06-10T01:13:26;100728.06;;;22.84;74.35
33414;BME280;60055;41.884;12.534;2023-06-10T01:15:55;100731.84;;;22.82;74.76
33414;BME280;60055;41.884;12.534;2023-06-10T01:18:21;100721.50;;;22.77;74.31
33414;BME280;60055;41.884;12.534;2023-06-10T01:20:47;100711.72;;;22.76;74.35
33414;BME280;60055;41.884;12.534;2023-06-10T01:23:14;100699.09;;;22.77;74.50
33414;BME280;60055;41.884;12.534;2023-06-10T01:26:09;100700.34;;;22.73;74.86
33414;BME280;60055;41.884;12.534;2023-06-10T01:31:17;100711.31;;;22.81;74.92
33414;BME280;60055;41.884;12.534;2023-06-10T01:33:46;100711.03;;;22.84;74.85
33414;BME280;60055;41.884;12.534;2023-06-10T01:36:13;100699.84;;;22.88;75.02
33414;BME280;60055;41.884;12.534;2023-06-10T01:38:45;100687.19;;;22.79;74.44
33414;BME280;60055;41.884;12.534;2023-06-10T01:41:16;100693.72;;;22.77;74.67
33414;BME280;60055;41.884;12.534;2023-06-10T01:43:43;100703.94;;;22.83;74.34
33414;BME280;60055;41.884;12.534;2023-06-10T01:46:09;100709.25;;;22.94;74.20
33414;BME280;60055;41.884;12.534;2023-06-10T01:48:34;100711.91;;;22.84;74.89
33414;BME280;60055;41.884;12.534;2023-06-10T01:51:00;100718.91;;;22.97;74.31
33414;BME280;60055;41.884;12.534;2023-06-10T01:55:51;100718.69;;;22.88;74.47
33414;BME280;60055;41.884;12.534;2023-06-10T01:58:16;100715.66;;;23.03;73.83
33414;BME280;60055;41.884;12.534;2023-06-10T02:00:42;100710.22;;;22.93;74.08
33414;BME280;60055;41.884;12.534;2023-06-10T02:03:07;100705.03;;;23.01;73.98
33414;BME280;60055;41.884;12.534;2023-06-10T02:05:33;100700.44;;;22.92;74.00
33414;BME280;60055;41.884;12.534;2023-06-10T02:07:58;100689.94;;;22.89;74.12
33414;BME280;60055;41.884;12.534;2023-06-10T02:10:24;100690.09;;;22.87;74.69
33414;BME280;60055;41.884;12.534;2023-06-10T02:12:50;100680.84;;;22.80;74.81
33414;BME280;60055;41.884;12.534;2023-06-10T02:15:15;100679.16;;;22.89;74.51
33414;BME280;60055;41.884;12.534;2023-06-10T02:17:40;100676.97;;;22.73;74.83
33414;BME280;60055;41.884;12.534;2023-06-10T02:20:06;100680.25;;;22.56;75.73
33414;BME280;60055;41.884;12.534;2023-06-10T02:22:33;100668.19;;;22.51;75.53
33414;BME280;60055;41.884;12.534;2023-06-10T02:24:59;100656.75;;;22.37;76.32
33414;BME280;60055;41.884;12.534;2023-06-10T02:27:24;100656.56;;;22.29;76.57
33414;BME280;60055;41.884;12.534;2023-06-10T02:29:50;100663.47;;;22.22;76.82
33414;BME280;60055;41.884;12.534;2023-06-10T02:32:15;100665.88;;;22.25;76.95
33414;BME280;60055;41.884;12.534;2023-06-10T02:34:41;100676.13;;;22.31;76.27
33414;BME280;60055;41.884;12.534;2023-06-10T02:37:09;100683.84;;;22.04;77.56
33414;BME280;60055;41.884;12.534;2023-06-10T02:39:34;100679.13;;;22.17;77.05
33414;BME280;60055;41.884;12.534;2023-06-10T02:42:00;100680.53;;;22.32;75.92
33414;BME280;60055;41.884;12.534;2023-06-10T02:44:25;100685.91;;;22.32;75.96
33414;BME280;60055;41.884;12.534;2023-06-10T02:46:51;100693.38;;;22.29;76.18
33414;BME280;60055;41.884;12.534;2023-06-10T02:49:16;100691.50;;;22.40;75.42
33414;BME280;60055;41.884;12.534;2023-06-10T02:51:41;100688.72;;;22.31;75.95
33414;BME280;60055;41.884;12.534;2023-06-10T02:54:07;100684.13;;;22.22;76.26
33414;BME280;60055;41.884;12.534;2023-06-10T02:56:32;100674.81;;;22.26;76.41
33414;BME280;60055;41.884;12.534;2023-06-10T02:58:58;100672.16;;;22.15;77.07
33414;BME280;60055;41.884;12.534;2023-06-10T03:01:24;100677.13;;;22.30;76.13
33414;BME280;60055;41.884;12.534;2023-06-10T03:03:49;100667.44;;;22.28;76.12
33414;BME280;60055;41.884;12.534;2023-06-10T03:06:16;100672.31;;;22.13;77.43
33414;BME280;60055;41.884;12.534;2023-06-10T03:08:42;100671.00;;;22.28;75.94
33414;BME280;60055;41.884;12.534;2023-06-10T03:11:07;100665.94;;;22.35;75.09
33414;BME280;60055;41.884;12.534;2023-06-10T03:13:33;100668.03;;;22.31;75.62
33414;BME280;60055;41.884;12.534;2023-06-10T03:15:58;100657.94;;;22.24;75.07
33414;BME280;60055;41.884;12.534;2023-06-10T03:18:27;100657.28;;;22.31;75.38
33414;BME280;60055;41.884;12.534;2023-06-10T03:20:53;100660.28;;;22.17;75.77
33414;BME280;60055;41.884;12.534;2023-06-10T03:23:18;100661.41;;;22.15;75.53
33414;BME280;60055;41.884;12.534;2023-06-10T03:25:44;100665.88;;;22.05;76.02
33414;BME280;60055;41.884;12.534;2023-06-10T03:28:10;100668.59;;;21.94;76.27
33414;BME280;60055;41.884;12.534;2023-06-10T03:30:36;100674.47;;;21.87;76.85
33414;BME280;60055;41.884;12.534;2023-06-10T03:33:01;100669.03;;;22.10;75.85
33414;BME280;60055;41.884;12.534;2023-06-10T03:35:26;100670.06;;;22.18;75.19
33414;BME280;60055;41.884;12.534;2023-06-10T03:37:52;100663.31;;;22.24;74.62
33414;BME280;60055;41.884;12.534;2023-06-10T03:40:17;100666.84;;;22.24;74.73
33414;BME280;60055;41.884;12.534;2023-06-10T03:42:43;100662.06;;;22.28;73.87
33414;BME280;60055;41.884;12.534;2023-06-10T03:45:09;100658.59;;;22.16;72.51
33414;BME280;60055;41.884;12.534;2023-06-10T03:47:36;100653.59;;;22.12;73.22
33414;BME280;60055;41.884;12.534;2023-06-10T03:50:02;100658.72;;;22.15;72.32
33414;BME280;60055;41.884;12.534;2023-06-10T03:52:28;100649.53;;;22.17;71.52
33414;BME280;60055;41.884;12.534;2023-06-10T03:54:54;100662.00;;;22.18;71.29
33414;BME280;60055;41.884;12.534;2023-06-10T03:57:19;100650.28;;;22.19;71.84
33414;BME280;60055;41.884;12.534;2023-06-10T03:59:45;100655.31;;;22.13;71.98
33414;BME280;60055;41.884;12.534;2023-06-10T04:02:10;100650.47;;;22.07;71.84
33414;BME280;60055;41.884;12.534;2023-06-10T04:04:36;100657.69;;;22.06;72.37
33414;BME280;60055;41.884;12.534;2023-06-10T04:07:03;100653.94;;;22.18;72.14
33414;BME280;60055;41.884;12.534;2023-06-10T04:09:29;100654.91;;;22.17;72.39
33414;BME280;60055;41.884;12.534;2023-06-10T04:11:54;100660.19;;;22.19;72.40
33414;BME280;60055;41.884;12.534;2023-06-10T04:14:19;100664.75;;;22.07;73.08
33414;BME280;60055;41.884;12.534;2023-06-10T04:16:45;100670.78;;;22.00;73.58
33414;BME280;60055;41.884;12.534;2023-06-10T04:19:10;100663.25;;;22.14;73.21
33414;BME280;60055;41.884;12.534;2023-06-10T04:21:35;100658.59;;;22.16;73.68
33414;BME280;60055;41.884;12.534;2023-06-10T04:24:01;100656.28;;;22.12;73.95
33414;BME280;60055;41.884;12.534;2023-06-10T04:26:27;100652.56;;;22.24;73.52
33414;BME280;60055;41.884;12.534;2023-06-10T04:28:53;100652.91;;;22.10;73.89
33414;BME280;60055;41.884;12.534;2023-06-10T04:31:18;100651.63;;;22.14;73.99
33414;BME280;60055;41.884;12.534;2023-06-10T04:33:44;100654.78;;;21.98;74.48
33414;BME280;60055;41.884;12.534;2023-06-10T04:36:10;100643.56;;;22.14;74.11
33414;BME280;60055;41.884;12.534;2023-06-10T04:38:35;100646.66;;;22.09;74.25
33414;BME280;60055;41.884;12.534;2023-06-10T04:41:01;100645.09;;;22.07;74.50
33414;BME280;60055;41.884;12.534;2023-06-10T04:43:26;100640.69;;;22.06;74.17
33414;BME280;60055;41.884;12.534;2023-06-10T04:45:54;100652.94;;;21.99;74.12
33414;BME280;60055;41.884;12.534;2023-06-10T04:48:19;100657.25;;;21.90;74.29
33414;BME280;60055;41.884;12.534;2023-06-10T04:50:44;100645.53;;;21.91;73.50
33414;BME280;60055;41.884;12.534;2023-06-10T04:53:10;100649.00;;;21.71;73.85
33414;BME280;60055;41.884;12.534;2023-06-10T04:55:35;100646.72;;;21.66;74.23
33414;BME280;60055;41.884;12.534;2023-06-10T04:58:01;100643.75;;;21.69;73.61
33414;BME280;60055;41.884;12.534;2023-06-10T05:00:27;100645.94;;;21.75;73.35
33414;BME280;60055;41.884;12.534;2023-06-10T05:02:52;100645.75;;;21.88;73.11
33414;BME280;60055;41.884;12.534;2023-06-10T05:05:18;100638.25;;;21.71;73.81
33414;BME280;60055;41.884;12.534;2023-06-10T05:07:44;100644.72;;;21.68;73.86
33414;BME280;60055;41.884;12.534;2023-06-10T05:10:10;100650.69;;;21.83;73.56
33414;BME280;60055;41.884;12.534;2023-06-10T05:12:38;100646.13;;;21.95;73.13
33414;BME280;60055;41.884;12.534;2023-06-10T05:15:05;100644.63;;;22.02;72.01
33414;BME280;60055;41.884;12.534;2023-06-10T05:17:30;100652.47;;;21.94;71.42
33414;BME280;60055;41.884;12.534;2023-06-10T05:19:56;100647.56;;;21.87;71.22
33414;BME280;60055;41.884;12.534;2023-06-10T05:22:21;100652.03;;;21.77;71.37
33414;BME280;60055;41.884;12.534;2023-06-10T05:24:49;100654.59;;;21.79;71.07
33414;BME280;60055;41.884;12.534;2023-06-10T05:27:14;100654.09;;;21.74;71.62
33414;BME280;60055;41.884;12.534;2023-06-10T05:29:40;100654.06;;;21.85;70.94
33414;BME280;60055;41.884;12.534;2023-06-10T05:32:06;100653.22;;;21.96;70.60
33414;BME280;60055;41.884;12.534;2023-06-10T05:34:31;100646.44;;;22.01;70.60
33414;BME280;60055;41.884;12.534;2023-06-10T05:36:57;100647.91;;;22.05;70.50
33414;BME280;60055;41.884;12.534;2023-06-10T05:39:23;100648.44;;;21.88;70.53
33414;BME280;60055;41.884;12.534;2023-06-10T05:41:48;100652.34;;;21.95;69.62
33414;BME280;60055;41.884;12.534;2023-06-10T05:44:13;100648.69;;;21.85;69.90
33414;BME280;60055;41.884;12.534;2023-06-10T05:46:39;100646.25;;;21.93;69.23
33414;BME280;60055;41.884;12.534;2023-06-10T05:49:04;100648.50;;;22.09;68.90
33414;BME280;60055;41.884;12.534;2023-06-10T05:51:30;100658.78;;;22.04;69.48
33414;BME280;60055;41.884;12.534;2023-06-10T05:53:55;100652.63;;;22.13;69.39
33414;BME280;60055;41.884;12.534;2023-06-10T05:56:20;100652.94;;;21.99;69.14
33414;BME280;60055;41.884;12.534;2023-06-10T05:58:49;100657.81;;;22.25;68.64
33414;BME280;60055;41.884;12.534;2023-06-10T06:01:15;100657.88;;;22.35;67.94
33414;BME280;60055;41.884;12.534;2023-06-10T06:03:40;100661.75;;;22.21;68.28
33414;BME280;60055;41.884;12.534;2023-06-10T06:06:06;100653.72;;;22.52;68.12
33414;BME280;60055;41.884;12.534;2023-06-10T06:08:31;100658.31;;;23.21;65.66
33414;BME280;60055;41.884;12.534;2023-06-10T06:10:57;100660.28;;;23.98;64.14
33414;BME280;60055;41.884;12.534;2023-06-10T06:13:22;100653.38;;;24.61;61.82
33414;BME280;60055;41.884;12.534;2023-06-10T06:15:48;100651.75;;;24.97;60.15
33414;BME280;60055;41.884;12.534;2023-06-10T06:18:13;100655.19;;;25.43;57.96
33414;BME280;60055;41.884;12.534;2023-06-10T06:20:39;100647.91;;;25.71;57.21
33414;BME280;60055;41.884;12.534;2023-06-10T06:23:05;100648.38;;;25.84;56.58
33414;BME280;60055;41.884;12.534;2023-06-10T06:25:31;100658.38;;;26.10;55.57
33414;BME280;60055;41.884;12.534;2023-06-10T06:27:56;100659.25;;;26.28;54.56
33414;BME280;60055;41.884;12.534;2023-06-10T06:30:21;100654.38;;;25.96;54.55
33414;BME280;60055;41.884;12.534;2023-06-10T06:32:47;100649.75;;;25.71;54.71
33414;BME280;60055;41.884;12.534;2023-06-10T06:35:12;100657.09;;;25.33;55.48
33414;BME280;60055;41.884;12.534;2023-06-10T06:37:38;100658.19;;;24.86;56.96
33414;BME280;60055;41.884;12.534;2023-06-10T06:40:03;100660.88;;;24.86;56.95
33414;BME280;60055;41.884;12.534;2023-06-10T06:42:29;100656.34;;;24.77;57.31
33414;BME280;60055;41.884;12.534;2023-06-10T06:44:54;100661.56;;;24.88;57.26
33414;BME280;60055;41.884;12.534;2023-06-10T06:47:19;100661.88;;;25.67;55.34
33414;BME280;60055;41.884;12.534;2023-06-10T06:49:46;100665.41;;;26.03;54.19
33414;BME280;60055;41.884;12.534;2023-06-10T06:52:12;100664.72;;;25.65;53.33
33414;BME280;60055;41.884;12.534;2023-06-10T06:54:37;100661.56;;;25.70;53.75
33414;BME280;60055;41.884;12.534;2023-06-10T06:57:03;100665.75;;;25.37;54.54
33414;BME280;60055;41.884;12.534;2023-06-10T06:59:28;100660.88;;;25.40;55.03
33414;BME280;60055;41.884;12.534;2023-06-10T07:01:54;100665.19;;;25.33;55.31
33414;BME280;60055;41.884;12.534;2023-06-10T07:04:20;100658.25;;;25.49;54.26
33414;BME280;60055;41.884;12.534;2023-06-10T07:06:47;100663.03;;;25.37;54.39
33414;BME280;60055;41.884;12.534;2023-06-10T07:09:12;100664.16;;;25.44;54.61
33414;BME280;60055;41.884;12.534;2023-06-10T07:11:38;100670.19;;;25.56;54.16
33414;BME280;60055;41.884;12.534;2023-06-10T07:14:04;100664.81;;;25.91;53.44
33414;BME280;60055;41.884;12.534;2023-06-10T07:16:29;100669.59;;;25.97;53.42
33414;BME280;60055;41.884;12.534;2023-06-10T07:18:55;100666.84;;;25.17;55.00
33414;BME280;60055;41.884;12.534;2023-06-10T07:21:20;100675.84;;;25.35;55.46
33414;BME280;60055;41.884;12.534;2023-06-10T07:23:46;100675.22;;;25.23;54.95
33414;BME280;60055;41.884;12.534;2023-06-10T07:26:11;100675.81;;;24.71;56.59
33414;BME280;60055;41.884;12.534;2023-06-10T07:28:39;100679.19;;;24.36;58.17
33414;BME280;60055;41.884;12.534;2023-06-10T07:31:04;100674.81;;;24.72;57.32
33414;BME280;60055;41.884;12.534;2023-06-10T07:33:30;100681.84;;;25.02;56.95
33414;BME280;60055;41.884;12.534;2023-06-10T07:35:55;100678.13;;;25.84;54.62
33414;BME280;60055;41.884;12.534;2023-06-10T07:38:21;100685.97;;;26.49;53.18
33414;BME280;60055;41.884;12.534;2023-06-10T07:40:46;100690.66;;;26.64;51.58
33414;BME280;60055;41.884;12.534;2023-06-10T07:43:12;100686.94;;;26.91;50.96
33414;BME280;60055;41.884;12.534;2023-06-10T07:45:40;100688.66;;;27.68;49.89
33414;BME280;60055;41.884;12.534;2023-06-10T07:48:05;100681.19;;;27.70;50.18
33414;BME280;60055;41.884;12.534;2023-06-10T07:50:30;100684.28;;;27.91;49.07
33414;BME280;60055;41.884;12.534;2023-06-10T07:52:56;100682.22;;;27.85;48.45
33414;BME280;60055;41.884;12.534;2023-06-10T07:55:21;100683.63;;;28.05;49.04
33414;BME280;60055;41.884;12.534;2023-06-10T07:57:47;100688.31;;;27.29;50.12
33414;BME280;60055;41.884;12.534;2023-06-10T08:00:12;100689.88;;;27.89;49.45
33414;BME280;60055;41.884;12.534;2023-06-10T08:02:38;100691.44;;;28.16;47.81
33414;BME280;60055;41.884;12.534;2023-06-10T08:05:04;100689.06;;;28.54;47.42
33414;BME280;60055;41.884;12.534;2023-06-10T08:07:29;100687.66;;;27.93;46.12
33414;BME280;60055;41.884;12.534;2023-06-10T08:09:56;100685.19;;;28.24;46.14
33414;BME280;60055;41.884;12.534;2023-06-10T08:12:21;100682.19;;;27.69;47.44
33414;BME280;60055;41.884;12.534;2023-06-10T08:14:46;100680.72;;;27.74;46.87
33414;BME280;60055;41.884;12.534;2023-06-10T08:17:12;100678.16;;;27.89;47.37
33414;BME280;60055;41.884;12.534;2023-06-10T08:19:37;100684.16;;;28.49;45.41
33414;BME280;60055;41.884;12.534;2023-06-10T08:22:03;100685.00;;;28.66;44.71
33414;BME280;60055;41.884;12.534;2023-06-10T08:24:28;100675.47;;;28.62;44.28
33414;BME280;60055;41.884;12.534;2023-06-10T08:26:54;100677.78;;;28.97;43.34
33414;BME280;60055;41.884;12.534;2023-06-10T08:29:21;100682.28;;;28.66;43.14
33414;BME280;60055;41.884;12.534;2023-06-10T08:31:46;100680.03;;;27.97;44.34
33414;BME280;60055;41.884;12.534;2023-06-10T08:34:12;100679.41;;;28.51;43.35
33414;BME280;60055;41.884;12.534;2023-06-10T08:36:37;100682.97;;;28.76;42.75
33414;BME280;60055;41.884;12.534;2023-06-10T08:39:03;100679.63;;;29.05;42.68
33414;BME280;60055;41.884;12.534;2023-06-10T08:41:28;100677.78;;;29.44;41.54
33414;BME280;60055;41.884;12.534;2023-06-10T08:44:28;100677.66;;;29.37;41.87
33414;BME280;60055;41.884;12.534;2023-06-10T08:46:56;100681.06;;;29.39;41.08
33414;BME280;60055;41.884;12.534;2023-06-10T08:49:26;100679.50;;;29.45;40.11
33414;BME280;60055;41.884;12.534;2023-06-10T08:51:55;100678.09;;;29.57;40.90
33414;BME280;60055;41.884;12.534;2023-06-10T08:54:25;100679.56;;;29.21;39.52
33414;BME280;60055;41.884;12.534;2023-06-10T08:56:54;100677.94;;;29.04;38.81
33414;BME280;60055;41.884;12.534;2023-06-10T08:59:20;100679.75;;;29.19;38.76
33414;BME280;60055;41.884;12.534;2023-06-10T09:01:46;100677.53;;;28.43;38.91
33414;BME280;60055;41.884;12.534;2023-06-10T09:04:13;100682.78;;;28.05;40.10
33414;BME280;60055;41.884;12.534;2023-06-10T09:06:39;100676.81;;;27.35;41.13
33414;BME280;60055;41.884;12.534;2023-06-10T09:09:06;100692.88;;;27.28;41.10
33414;BME280;60055;41.884;12.534;2023-06-10T09:11:32;100684.59;;;27.80;39.90
33414;BME280;60055;41.884;12.534;2023-06-10T09:13:58;100688.56;;;28.02;39.32
33414;BME280;60055;41.884;12.534;2023-06-10T09:16:27;100687.66;;;27.93;39.06
33414;BME280;60055;41.884;12.534;2023-06-10T09:18:52;100682.31;;;28.17;39.30
33414;BME280;60055;41.884;12.534;2023-06-10T09:21:23;100681.28;;;28.26;37.83
33414;BME280;60055;41.884;12.534;2023-06-10T09:23:49;100688.06;;;28.22;37.50
33414;BME280;60055;41.884;12.534;2023-06-10T09:26:14;100674.47;;;28.22;37.45
33414;BME280;60055;41.884;12.534;2023-06-10T09:28:43;100672.09;;;28.68;37.22
33414;BME280;60055;41.884;12.534;2023-06-10T09:31:09;100675.81;;;28.51;36.55
33414;BME280;60055;41.884;12.534;2023-06-10T09:33:38;100675.63;;;28.60;36.54
33414;BME280;60055;41.884;12.534;2023-06-10T09:36:07;100669.53;;;28.50;37.39
33414;BME280;60055;41.884;12.534;2023-06-10T09:38:34;100669.38;;;28.68;38.28
33414;BME280;60055;41.884;12.534;2023-06-10T09:40:59;100666.88;;;29.05;38.01
33414;BME280;60055;41.884;12.534;2023-06-10T09:43:46;100662.81;;;29.09;38.81
33414;BME280;60055;41.884;12.534;2023-06-10T09:46:18;100662.88;;;29.24;37.99
33414;BME280;60055;41.884;12.534;2023-06-10T09:48:44;100655.09;;;29.29;37.38
33414;BME280;60055;41.884;12.534;2023-06-10T09:51:11;100655.09;;;29.21;37.88
33414;BME280;60055;41.884;12.534;2023-06-10T09:53:37;100651.00;;;28.78;39.08
33414;BME280;60055;41.884;12.534;2023-06-10T09:56:03;100646.94;;;28.74;39.62
33414;BME280;60055;41.884;12.534;2023-06-10T09:58:38;100649.19;;;28.38;39.60
33414;BME280;60055;41.884;12.534;2023-06-10T10:01:14;100641.91;;;28.38;40.03
33414;BME280;60055;41.884;12.534;2023-06-10T10:03:47;100642.16;;;28.84;38.52
33414;BME280;60055;41.884;12.534;2023-06-10T10:06:15;100637.81;;;29.06;38.65
33414;BME280;60055;41.884;12.534;2023-06-10T10:08:41;100634.19;;;29.21;37.68
33414;BME280;60055;41.884;12.534;2023-06-10T10:11:06;100645.56;;;29.17;37.16
33414;BME280;60055;41.884;12.534;2023-06-10T10:13:35;100635.88;;;29.22;37.72
33414;BME280;60055;41.884;12.534;2023-06-10T10:16:06;100639.50;;;28.52;39.51
33414;BME280;60055;41.884;12.534;2023-06-10T10:18:35;100637.31;;;28.07;40.08
33414;BME280;60055;41.884;12.534;2023-06-10T10:21:07;100636.59;;;27.64;40.83
33414;BME280;60055;41.884;12.534;2023-06-10T10:24:01;100632.66;;;27.51;41.51
33414;BME280;60055;41.884;12.534;2023-06-10T10:26:26;100635.78;;;27.38;41.70
33414;BME280;60055;41.884;12.534;2023-06-10T10:29:07;100629.59;;;27.46;41.19
33414;BME280;60055;41.884;12.534;2023-06-10T10:31:36;100626.56;;;27.57;41.07
33414;BME280;60055;41.884;12.534;2023-06-10T10:34:07;100629.47;;;27.71;41.79
33414;BME280;60055;41.884;12.534;2023-06-10T10:36:34;100627.13;;;27.84;42.14
33414;BME280;60055;41.884;12.534;2023-06-10T10:39:02;100618.81;;;27.78;42.89
33414;BME280;60055;41.884;12.534;2023-06-10T10:41:30;100619.81;;;27.77;43.56
33414;BME280;60055;41.884;12.534;2023-06-10T10:43:57;100620.00;;;27.91;42.79
33414;BME280;60055;41.884;12.534;2023-06-10T10:46:23;100618.84;;;28.18;42.77
33414;BME280;60055;41.884;12.534;2023-06-10T10:48:52;100621.88;;;28.31;41.94
33414;BME280;60055;41.884;12.534;2023-06-10T10:51:19;100611.28;;;28.53;41.46
33414;BME280;60055;41.884;12.534;2023-06-10T10:54:14;100608.91;;;28.50;41.36
33414;BME280;60055;41.884;12.534;2023-06-10T10:59:55;100607.09;;;28.02;41.51
33414;BME280;60055;41.884;12.534;2023-06-10T11:02:45;100601.66;;;28.26;41.39
33414;BME280;60055;41.884;12.534;2023-06-10T11:05:14;100600.59;;;28.59;40.65
33414;BME280;60055;41.884;12.534;2023-06-10T11:07:40;100597.63;;;28.22;41.41
33414;BME280;60055;41.884;12.534;2023-06-10T11:10:11;100590.94;;;28.40;41.06
33414;BME280;60055;41.884;12.534;2023-06-10T11:15:12;100586.72;;;28.30;40.42
33414;BME280;60055;41.884;12.534;2023-06-10T11:17:39;100589.97;;;28.17;41.42
33414;BME280;60055;41.884;12.534;2023-06-10T11:26:29;100571.78;;;28.34;41.26
33414;BME280;60055;41.884;12.534;2023-06-10T11:31:23;100568.84;;;28.52;41.42
33414;BME280;60055;41.884;12.534;2023-06-10T11:33:55;100559.09;;;27.78;41.98
33414;BME280;60055;41.884;12.534;2023-06-10T11:36:22;100560.63;;;27.80;42.41
33414;BME280;60055;41.884;12.534;2023-06-10T11:38:48;100560.97;;;27.77;42.47
33414;BME280;60055;41.884;12.534;2023-06-10T11:41:14;100559.91;;;27.78;42.26
33414;BME280;60055;41.884;12.534;2023-06-10T11:43:43;100548.91;;;27.96;42.87
33414;BME280;60055;41.884;12.534;2023-06-10T11:46:10;100542.97;;;28.01;43.58
33414;BME280;60055;41.884;12.534;2023-06-10T11:48:35;100546.72;;;27.83;43.85
33414;BME280;60055;41.884;12.534;2023-06-10T11:51:01;100546.22;;;27.88;44.53
33414;BME280;60055;41.884;12.534;2023-06-10T11:53:26;100546.19;;;27.72;44.75
33414;BME280;60055;41.884;12.534;2023-06-10T11:55:53;100543.13;;;27.99;44.21
33414;BME280;60055;41.884;12.534;2023-06-10T11:58:22;100540.38;;;28.31;43.70
33414;BME280;60055;41.884;12.534;2023-06-10T12:00:51;100543.16;;;28.07;43.79
33414;BME280;60055;41.884;12.534;2023-06-10T12:03:19;100539.44;;;28.08;43.84
33414;BME280;60055;41.884;12.534;2023-06-10T12:06:03;100534.56;;;28.42;42.95
33414;BME280;60055;41.884;12.534;2023-06-10T12:08:29;100524.97;;;28.63;42.26
33414;BME280;60055;41.884;12.534;2023-06-10T12:10:55;100526.81;;;28.78;42.60
33414;BME280;60055;41.884;12.534;2023-06-10T12:13:21;100524.41;;;28.36;41.95
33414;BME280;60055;41.884;12.534;2023-06-10T12:15:47;100531.56;;;28.29;42.36
33414;BME280;60055;41.884;12.534;2023-06-10T12:18:23;100523.09;;;28.24;42.16
33414;BME280;60055;41.884;12.534;2023-06-10T12:20:49;100523.41;;;28.29;42.36
33414;BME280;60055;41.884;12.534;2023-06-10T12:23:17;100528.81;;;28.46;41.23
33414;BME280;60055;41.884;12.534;2023-06-10T12:25:53;100523.38;;;28.37;41.21
33414;BME280;60055;41.884;12.534;2023-06-10T12:28:26;100517.59;;;28.40;41.30
33414;BME280;60055;41.884;12.534;2023-06-10T12:31:06;100512.28;;;28.55;40.49
33414;BME280;60055;41.884;12.534;2023-06-10T12:33:32;100512.03;;;28.81;40.85
33414;BME280;60055;41.884;12.534;2023-06-10T12:35:58;100502.31;;;28.86;40.48
33414;BME280;60055;41.884;12.534;2023-06-10T12:38:24;100512.03;;;29.12;39.61
33414;BME280;60055;41.884;12.534;2023-06-10T12:40:52;100499.88;;;28.61;40.29
33414;BME280;60055;41.884;12.534;2023-06-10T12:43:21;100502.44;;;28.54;40.59
33414;BME280;60055;41.884;12.534;2023-06-10T12:45:47;100498.16;;;28.60;40.27
33414;BME280;60055;41.884;12.534;2023-06-10T12:48:23;100496.00;;;28.55;40.62
33414;BME280;60055;41.884;12.534;2023-06-10T12:53:18;100487.28;;;28.68;40.44
33414;BME280;60055;41.884;12.534;2023-06-10T12:55:45;100483.63;;;28.83;40.45
33414;BME280;60055;41.884;12.534;2023-06-10T12:58:11;100491.53;;;29.24;39.42
33414;BME280;60055;41.884;12.534;2023-06-10T13:00:37;100480.13;;;29.06;39.66
33414;BME280;60055;41.884;12.534;2023-06-10T13:03:03;100482.13;;;29.34;38.86